Time;durP1;ratioP1;P1;durP2;ratioP2;P2;SDS_P1;SDS_P2;PMS_P1;PMS_P2;Temp;Humidity;BMP_temperature;BMP_pressure;BME280_temperature;BME280_humidity;BME280_pressure;Samples;Min_cycle;Max_cycle;Signal;HPM_P1;HPM_P2
2020/12/16 00:01:57;;;;;;;0.40;0.40;;;11.30;99.90;;;;;;20739253;28;20233;-74
2020/12/16 00:12:00;;;;;;;1.30;1.03;;;11.00;99.90;;;;;;20754075;28;20335;-75
2020/12/16 00:22:03;;;;;;;2.57;0.73;;;10.70;99.90;;;;;;20752546;28;20251;-73
2020/12/16 00:32:06;;;;;;;2.63;1.50;;;10.60;99.90;;;;;;20738109;28;20618;-73
2020/12/16 00:42:10;;;;;;;7.67;2.40;;;10.60;99.90;;;;;;20738216;28;20285;-75
2020/12/16 00:52:13;;;;;;;1.03;0.93;;;10.80;99.90;;;;;;20751666;28;20317;-74
2020/12/16 01:02:16;;;;;;;1.30;0.87;;;10.20;99.90;;;;;;20847103;23;20457;-77
2020/12/16 01:12:19;;;;;;;2.73;0.97;;;10.10;99.90;;;;;;21033248;28;20326;-78
2020/12/16 01:22:22;;;;;;;5.03;1.77;;;9.90;99.90;;;;;;20985630;28;20508;-78
2020/12/16 01:32:25;;;;;;;0.23;0.13;;;9.50;99.90;;;;;;20990745;28;20217;-79
2020/12/16 01:42:28;;;;;;;0.20;0.10;;;9.50;99.90;;;;;;21000270;28;20283;-78
2020/12/16 01:52:32;;;;;;;0.20;0.20;;;9.10;99.90;;;;;;20997833;28;20224;-78
2020/12/16 02:02:39;;;;;;;0.30;0.30;;;8.80;99.90;;;;;;20998652;28;20251;-80
2020/12/16 02:12:41;;;;;;;0.57;0.33;;;8.60;99.90;;;;;;20997251;28;20207;-77
2020/12/16 02:22:49;;;;;;;0.40;0.40;;;8.30;99.90;;;;;;20996122;28;20283;-76
2020/12/16 02:32:52;;;;;;;0.20;0.20;;;8.50;99.90;;;;;;20995365;28;20658;-76
2020/12/16 02:42:55;;;;;;;0.20;0.10;;;8.30;99.90;;;;;;20993082;28;20603;-76
2020/12/16 02:52:59;;;;;;;2.00;0.60;;;8.30;99.90;;;;;;20976199;28;20197;-77
2020/12/16 03:03:01;;;;;;;3.27;0.60;;;8.10;99.90;;;;;;20972702;22;20229;-68
2020/12/16 03:13:05;;;;;;;0.73;0.60;;;8.20;99.90;;;;;;20908736;28;20193;-68
2020/12/16 03:23:08;;;;;;;0.20;0.10;;;8.20;99.90;;;;;;20906755;28;20224;-68
2020/12/16 03:33:12;;;;;;;0.20;0.03;;;8.00;99.90;;;;;;20925849;28;20696;-68
2020/12/16 03:43:14;;;;;;;0.30;0.20;;;7.70;99.90;;;;;;20988974;28;20532;-68
2020/12/16 03:53:18;;;;;;;0.20;0.10;;;7.90;99.90;;;;;;20987800;28;20200;-68
2020/12/16 04:03:20;;;;;;;0.20;0.20;;;7.70;99.90;;;;;;20987707;28;20239;-67
2020/12/16 04:13:24;;;;;;;0.90;0.60;;;7.70;99.90;;;;;;20984935;28;20295;-67
2020/12/16 04:23:26;;;;;;;0.20;0.10;;;7.30;99.90;;;;;;20983036;28;20225;-68
2020/12/16 04:33:30;;;;;;;0.20;0.10;;;7.60;99.90;;;;;;20982805;28;20697;-67
2020/12/16 04:43:39;;;;;;;0.30;0.27;;;7.60;99.90;;;;;;20965367;28;20714;-67
2020/12/16 04:53:43;;;;;;;0.60;0.20;;;7.50;99.90;;;;;;20983295;28;20840;-68
2020/12/16 05:03:46;;;;;;;0.20;0.10;;;7.60;99.90;;;;;;20983623;28;20652;-67
2020/12/16 05:14:10;;;;;;;0.20;0.10;;;7.30;99.90;;;;;;20979226;28;20278;-68
2020/12/16 05:24:13;;;;;;;0.20;0.10;;;7.60;99.90;;;;;;20980661;28;20228;-67
2020/12/16 05:34:16;;;;;;;0.87;0.83;;;7.50;99.90;;;;;;20962053;28;20197;-67
2020/12/16 05:44:21;;;;;;;0.20;0.10;;;7.80;99.90;;;;;;20980221;28;20216;-68
2020/12/16 05:54:24;;;;;;;0.20;0.10;;;7.60;99.90;;;;;;20978144;28;20684;-68
2020/12/16 06:04:27;;;;;;;0.20;0.10;;;7.70;99.90;;;;;;20980267;28;20268;-69
2020/12/16 06:14:34;;;;;;;0.30;0.30;;;7.50;99.90;;;;;;20961961;28;20695;-69
2020/12/16 06:24:43;;;;;;;0.30;0.20;;;7.50;99.90;;;;;;20992762;28;20227;-68
2020/12/16 06:34:47;;;;;;;0.20;0.10;;;7.60;99.90;;;;;;20991976;28;20197;-69
2020/12/16 06:45:09;;;;;;;0.57;0.30;;;7.60;99.90;;;;;;20991053;28;20307;-69
2020/12/16 06:55:13;;;;;;;0.20;0.20;;;7.50;99.90;;;;;;20971656;28;20626;-68
2020/12/16 07:05:36;;;;;;;0.20;0.20;;;7.50;99.90;;;;;;20985919;28;20281;-69
2020/12/16 07:15:44;;;;;;;0.20;0.10;;;7.50;99.90;;;;;;20986028;28;20272;-69
2020/12/16 07:25:47;;;;;;;0.20;0.10;;;7.00;99.90;;;;;;20988357;28;20723;-67
2020/12/16 07:35:52;;;;;;;1.13;0.30;;;7.30;99.90;;;;;;20981158;28;20227;-67
2020/12/16 07:46:05;;;;;;;3.33;0.70;;;7.90;99.90;;;;;;20985147;28;20224;-68
2020/12/16 07:56:09;;;;;;;0.80;0.80;;;8.10;99.90;;;;;;20985237;28;20292;-69
2020/12/16 08:06:12;;;;;;;0.20;0.20;;;8.00;99.90;;;;;;20983526;28;20401;-67
2020/12/16 08:16:16;;;;;;;0.20;0.10;;;8.70;99.90;;;;;;20978524;28;20272;-68
2020/12/16 08:26:20;;;;;;;8.13;0.70;;;9.20;99.90;;;;;;20899671;28;20240;-68
2020/12/16 08:36:27;;;;;;;0.30;0.20;;;10.00;99.90;;;;;;20897174;28;20662;-68
2020/12/16 08:46:29;;;;;;;0.93;0.80;;;10.60;99.90;;;;;;20878679;28;20221;-68
2020/12/16 08:56:36;;;;;;;0.63;0.63;;;11.20;99.90;;;;;;20883855;28;20204;-68
2020/12/16 09:06:39;;;;;;;0.63;0.63;;;12.20;99.90;;;;;;20905019;28;20232;-68
2020/12/16 09:16:42;;;;;;;0.20;0.10;;;13.20;99.90;;;;;;20971457;28;20193;-68
2020/12/16 09:26:47;;;;;;;0.43;0.43;;;13.70;99.90;;;;;;20976921;28;20259;-68
2020/12/16 09:36:50;;;;;;;3.80;0.63;;;14.20;99.90;;;;;;20979758;28;20189;-68
2020/12/16 09:46:53;;;;;;;1.23;0.30;;;14.60;99.90;;;;;;20978511;28;20315;-67
2020/12/16 09:57:10;;;;;;;0.37;0.20;;;15.10;99.90;;;;;;20948365;28;20272;-68
2020/12/16 10:07:12;;;;;;;0.50;0.50;;;15.50;99.90;;;;;;20992419;28;20235;-68
2020/12/16 10:17:19;;;;;;;0.20;0.10;;;15.70;99.90;;;;;;20991652;28;20343;-68
2020/12/16 10:27:22;;;;;;;0.53;0.10;;;16.50;99.90;;;;;;20969928;28;20231;-69
2020/12/16 10:37:26;;;;;;;0.20;0.10;;;17.50;99.90;;;;;;20984213;28;20279;-69
2020/12/16 10:47:28;;;;;;;0.47;0.23;;;17.80;99.90;;;;;;20973321;28;20231;-69
2020/12/16 10:57:31;;;;;;;0.40;0.20;;;18.00;99.90;;;;;;20982305;28;20280;-68
2020/12/16 11:07:35;;;;;;;0.20;0.00;;;18.40;99.90;;;;;;20905727;28;20709;-69
2020/12/16 11:17:38;;;;;;;0.60;0.60;;;18.60;99.90;;;;;;20904240;28;20527;-68
2020/12/16 11:27:41;;;;;;;0.40;0.27;;;18.40;99.90;;;;;;20904364;28;20225;-69
2020/12/16 11:37:44;;;;;;;2.27;2.07;;;18.70;99.90;;;;;;20887193;28;20716;-69
2020/12/16 11:47:49;;;;;;;3.20;1.90;;;18.80;99.90;;;;;;20908792;28;20229;-69
2020/12/16 11:57:52;;;;;;;2.23;1.33;;;18.70;99.90;;;;;;20983489;28;20549;-70
2020/12/16 12:07:55;;;;;;;1.77;1.37;;;20.40;99.90;;;;;;20964024;28;20233;-70
2020/12/16 12:17:58;;;;;;;1.03;0.97;;;21.40;99.90;;;;;;20909528;28;20225;-69
2020/12/16 12:28:02;;;;;;;0.63;0.50;;;21.00;99.90;;;;;;20882915;28;20583;-69
2020/12/16 12:38:04;;;;;;;1.33;1.17;;;21.30;99.90;;;;;;20900046;28;20202;-69
2020/12/16 12:48:08;;;;;;;0.93;0.93;;;21.50;99.90;;;;;;20899729;28;20224;-70
2020/12/16 12:58:11;;;;;;;0.60;0.60;;;21.30;99.90;;;;;;20912657;28;20185;-70
2020/12/16 13:08:14;;;;;;;3.13;0.77;;;21.70;99.90;;;;;;20978877;28;20232;-69
2020/12/16 13:18:17;;;;;;;1.60;1.13;;;20.70;99.90;;;;;;20977670;28;20217;-70
2020/12/16 13:28:21;;;;;;;1.37;0.57;;;21.20;99.90;;;;;;20954919;28;20243;-70
2020/12/16 13:38:24;;;;;;;1.00;0.70;;;21.40;99.90;;;;;;20953921;28;20250;-70
2020/12/16 13:48:28;;;;;;;0.40;0.30;;;20.60;99.90;;;;;;20958128;28;20318;-67
2020/12/16 13:58:32;;;;;;;0.20;0.20;;;21.40;99.90;;;;;;20961096;28;20205;-69
2020/12/16 14:08:36;;;;;;;0.88;0.88;;;21.70;99.90;;;;;;20892229;28;20320;-69
2020/12/16 14:18:39;;;;;;;1.20;0.97;;;21.00;99.90;;;;;;20892528;28;20197;-70
2020/12/16 14:28:43;;;;;;;0.40;0.13;;;21.50;99.90;;;;;;20891109;28;20253;-71
2020/12/16 14:38:46;;;;;;;0.40;0.40;;;21.60;99.90;;;;;;20896959;28;20284;-70
2020/12/16 14:48:50;;;;;;;0.33;0.30;;;20.00;99.90;;;;;;20983178;28;20499;-68
2020/12/16 14:58:53;;;;;;;0.60;0.60;;;18.90;99.90;;;;;;20986946;28;20638;-68
2020/12/16 15:08:56;;;;;;;0.83;0.67;;;18.50;99.90;;;;;;20986563;28;20576;-68
2020/12/16 15:19:00;;;;;;;0.63;0.50;;;18.90;99.90;;;;;;20985039;28;20220;-69
2020/12/16 15:29:04;;;;;;;0.40;0.40;;;19.70;99.90;;;;;;20965558;28;20221;-67
2020/12/16 15:39:06;;;;;;;0.43;0.40;;;19.60;99.90;;;;;;20983758;28;20287;-70
2020/12/16 15:49:10;;;;;;;1.70;1.50;;;19.30;99.90;;;;;;20982918;28;20678;-69
2020/12/16 15:59:12;;;;;;;1.70;0.47;;;18.40;99.90;;;;;;20983874;28;20208;-67
2020/12/16 16:09:19;;;;;;;0.20;0.20;;;16.70;99.90;;;;;;20925580;28;20237;-68
2020/12/16 16:19:22;;;;;;;0.47;0.47;;;15.80;99.90;;;;;;20979404;28;20279;-68
2020/12/16 16:29:26;;;;;;;0.63;0.60;;;15.20;99.90;;;;;;20980436;28;20418;-66
2020/12/16 16:39:30;;;;;;;7.73;3.07;;;14.20;99.90;;;;;;20958997;28;20464;-69
2020/12/16 16:49:34;;;;;;;1.50;1.20;;;14.00;99.90;;;;;;20893519;28;20256;-66
2020/12/16 16:59:36;;;;;;;2.67;0.77;;;13.70;99.90;;;;;;20898562;28;20390;-66
2020/12/16 17:09:50;;;;;;;2.00;1.40;;;13.10;99.90;;;;;;20959497;28;20566;-68
2020/12/16 17:19:52;;;;;;;1.60;0.93;;;12.90;99.90;;;;;;20976437;28;20204;-68
2020/12/16 17:29:56;;;;;;;2.10;1.90;;;12.80;99.90;;;;;;20957087;28;20704;-67
2020/12/16 17:40:18;;;;;;;0.40;0.40;;;12.40;99.90;;;;;;20974065;28;20233;-67
2020/12/16 17:50:28;;;;;;;0.27;0.10;;;12.30;99.90;;;;;;20974695;28;20616;-67
2020/12/16 18:00:30;;;;;;;1.10;1.00;;;12.10;99.90;;;;;;20918016;28;20587;-67
2020/12/16 18:10:39;;;;;;;1.60;1.17;;;12.00;99.90;;;;;;20894573;28;20279;-66
2020/12/16 18:20:41;;;;;;;0.43;0.37;;;11.80;99.90;;;;;;20941952;28;20217;-69
2020/12/16 18:30:45;;;;;;;1.90;1.67;;;11.70;99.90;;;;;;20953707;28;20593;-69
2020/12/16 18:40:54;;;;;;;2.47;0.57;;;11.50;99.90;;;;;;20822302;28;20210;-67
2020/12/16 18:50:57;;;;;;;1.73;0.60;;;11.50;99.90;;;;;;20821883;28;20313;-67
2020/12/16 19:01:02;;;;;;;0.50;0.40;;;11.40;99.90;;;;;;20819552;28;20245;-67
2020/12/16 19:11:14;;;;;;;0.80;0.63;;;11.30;99.90;;;;;;20819934;28;20629;-67
2020/12/16 19:21:16;;;;;;;1.33;0.90;;;11.20;99.90;;;;;;20818059;28;20289;-67
2020/12/16 19:31:20;;;;;;;0.20;0.10;;;11.10;99.90;;;;;;20804795;28;20625;-67
2020/12/16 19:41:30;;;;;;;2.50;1.87;;;11.20;99.90;;;;;;20900274;28;20205;-67
2020/12/16 19:51:35;;;;;;;3.13;1.87;;;11.30;99.90;;;;;;20943957;28;20229;-67
2020/12/16 20:01:38;;;;;;;3.23;2.13;;;11.40;99.90;;;;;;20898929;28;20217;-68
2020/12/16 20:11:50;;;;;;;0.50;0.50;;;11.60;99.90;;;;;;20898069;28;20216;-69
2020/12/16 20:21:53;;;;;;;1.50;1.40;;;11.70;99.90;;;;;;20888395;28;20197;-67
2020/12/16 20:31:57;;;;;;;1.17;0.73;;;11.50;99.90;;;;;;20908371;28;20220;-67
2020/12/16 20:42:11;;;;;;;0.40;0.40;;;11.30;99.90;;;;;;20982321;28;20546;-69
2020/12/16 20:52:16;;;;;;;0.20;0.20;;;11.10;99.90;;;;;;20964520;28;20231;-66
2020/12/16 21:02:20;;;;;;;0.20;0.00;;;11.20;99.90;;;;;;20981639;28;20418;-69
2020/12/16 21:12:26;;;;;;;1.53;0.87;;;10.60;99.90;;;;;;20981025;28;20315;-68
2020/12/16 21:22:29;;;;;;;0.67;0.67;;;10.40;99.90;;;;;;20981981;28;20211;-68
2020/12/16 21:32:34;;;;;;;0.20;0.10;;;10.20;99.90;;;;;;20981142;28;20311;-68
2020/12/16 21:42:43;;;;;;;0.87;0.83;;;10.10;99.90;;;;;;20981754;28;20197;-67
2020/12/16 21:52:47;;;;;;;0.50;0.20;;;10.30;99.90;;;;;;20977566;28;20228;-67
2020/12/16 22:02:50;;;;;;;0.33;0.33;;;10.30;99.90;;;;;;20996455;28;20223;-68
2020/12/16 22:13:08;;;;;;;0.93;0.87;;;10.50;99.90;;;;;;20995501;28;20220;-68
2020/12/16 22:23:10;;;;;;;0.30;0.30;;;10.70;99.90;;;;;;20995569;28;20291;-67
2020/12/16 22:33:14;;;;;;;0.50;0.50;;;10.70;99.90;;;;;;20975629;28;20327;-66
2020/12/16 22:43:21;;;;;;;0.83;0.30;;;10.70;99.90;;;;;;20911432;28;20221;-68
2020/12/16 22:53:25;;;;;;;0.40;0.33;;;10.60;99.90;;;;;;20909334;28;20313;-68
2020/12/16 23:03:28;;;;;;;0.50;0.50;;;10.80;99.90;;;;;;20908083;28;20238;-68
2020/12/16 23:13:38;;;;;;;1.03;0.73;;;10.40;99.90;;;;;;20909096;28;20233;-68
2020/12/16 23:23:40;;;;;;;0.20;0.20;;;10.40;99.90;;;;;;20907673;28;20281;-68
2020/12/16 23:33:44;;;;;;;0.27;0.20;;;10.20;99.90;;;;;;20907962;28;20285;-68
2020/12/16 23:43:53;;;;;;;0.50;0.20;;;10.00;99.90;;;;;;20905827;28;20731;-68
2020/12/16 23:53:56;;;;;;;2.30;0.37;;;10.30;99.90;;;;;;20907407;28;20706;-66
